Pallaskenry, Ireland
Current Conditions -  °F | °C
As of 12:30 AM on Tuesday 25 Nov 2014 (Local Time) from EINN Reporting Station
Overcast Overcast  
Wind Chill: 42°   Ceiling: 2600
Heat Index: 45°   Visibility: 5mi
Dew Point: 45°   Wind: 5mph
Humidity: 100%   Direction: 330°NNW
Pressure: 30.27"   Gusts: NA
Location:  52.65°N, 8.87°W
Report Text: EINN 250030Z 33004KT 8000 FEW014 OVC026 07/07 Q1025 NOSIG
Loading
Personal Weather Stations






























Interactive Weather Map New forecast layout! Learn more

10-Day Weather Forecast

Advertisements
Track Severe Weather on mobile